»·PEaware :: N98711 KSBA-KBUR

N98711 :: KSBA-KBUR

FLIGHT INFORMATION

Flight Status: Arrived
Operator: Privately registered:
United States
More flights under this callsign
Pilot: Kim B. (19519)
Aircraft: BELL/BOEING OSPREY
(V22)
More flights by this aircraft type
Origin: KSBA Santa Barbara Mun
United States
Destination: KBUR Bob Hope-Burbank
United States
More flights between these airports :: More routes between these airports
Route: +
File this flight plan on PilotEdge
Remarks: CAT8
Altitude:
(Current/Filed)
5,500ft
Speed:
(Current/Filed)
0kts
Departed: 20-Sep-18 04:33 PM
Arrived: 20-Sep-18 05:01 PM
Distance/Time
Traveled:
75nm/0:28
Distance/Time
To Go:
Arrived

Flight Plot

Page will automatically refresh every two minutes.


Map Options




Map Legend


Flown Route
Filed Route
Departure Airport
Arrival Airport
Navaid (VOR, NDB)
Fix

Horizontal Profiles

Position Reports

Time Latitude Longitude Heading Altitude Ground
Speed
20-Sep-18 16:27 34.422632 -119.835580 340 21ft 0kts
20-Sep-18 16:28 34.422632 -119.835580 340 21ft 0kts
20-Sep-18 16:29 34.422632 -119.835580 340 21ft 0kts
20-Sep-18 16:30 34.423353 -119.837315 4 21ft 8kts
20-Sep-18 16:31 34.426756 -119.836013 89 21ft 17kts
20-Sep-18 16:32 34.427118 -119.834639 359 21ft 0kts
20-Sep-18 16:33 34.427118 -119.834639 359 21ft 0kts
20-Sep-18 16:34 34.427914 -119.835193 272 21ft 1kts
20-Sep-18 16:35 34.427475 -119.859264 267 508ft 117kts
20-Sep-18 16:36 34.426413 -119.919860 270 1483ft 212kts
20-Sep-18 16:37 34.441573 -119.985288 342 3377ft 206kts
20-Sep-18 16:38 34.491447 -119.966752 101 5062ft 217kts
20-Sep-18 16:39 34.466619 -119.891059 109 5421ft 270kts
20-Sep-18 16:40 34.443891 -119.801576 101 5422ft 280kts
20-Sep-18 16:41 34.434663 -119.711361 92 5436ft 270kts
20-Sep-18 16:42 34.416398 -119.623939 110 5465ft 271kts
20-Sep-18 16:43 34.388845 -119.539527 110 5468ft 270kts
20-Sep-18 16:44 34.361909 -119.454576 112 5485ft 270kts
20-Sep-18 16:45 34.327427 -119.373617 116 5467ft 269kts
20-Sep-18 16:46 34.303552 -119.291741 105 5614ft 271kts
20-Sep-18 16:47 34.284828 -119.204507 100 5458ft 271kts
20-Sep-18 16:48 34.281803 -119.115132 80 5578ft 272kts
20-Sep-18 16:49 34.284699 -119.025224 108 5455ft 270kts
20-Sep-18 16:50 34.254304 -118.942074 110 5502ft 269kts
20-Sep-18 16:51 34.236996 -118.853445 100 5504ft 273kts
20-Sep-18 16:52 34.226557 -118.762636 96 5522ft 270kts
20-Sep-18 16:53 34.219633 -118.672692 93 5532ft 270kts
20-Sep-18 16:54 34.216843 -118.582057 89 5480ft 270kts
20-Sep-18 16:55 34.210633 -118.492092 103 4084ft 284kts
20-Sep-18 16:56 34.196043 -118.426262 102 1546ft 175kts
20-Sep-18 16:57 34.193773 -118.377783 93 1341ft 121kts
20-Sep-18 16:58 34.190461 -118.337454 98 1910ft 130kts
20-Sep-18 16:59 34.170732 -118.318729 260 2008ft 151kts
20-Sep-18 17:00 34.188062 -118.353187 272 1789ft 116kts
20-Sep-18 17:01 34.186542 -118.391839 300 1802ft 121kts
20-Sep-18 17:02 34.197783 -118.362195 89 1211ft 110kts
20-Sep-18 17:03 34.197833 -118.350674 91 785ft 0kts
20-Sep-18 17:04 34.198456 -118.350801 345 788ft 2kts
20-Sep-18 17:05 34.198458 -118.350802 345 788ft 0kts
20-Sep-18 17:06 34.198763 -118.351443 272 788ft 15kts
20-Sep-18 17:07 34.198878 -118.359581 270 788ft 14kts
20-Sep-18 17:08 34.200063 -118.358757 257 788ft 3kts
20-Sep-18 17:09 34.200059 -118.358768 251 788ft 0kts
20-Sep-18 17:10 34.200059 -118.358768 251 788ft 0kts
20-Sep-18 17:11 34.200059 -118.358767 251 788ft 0kts
20-Sep-18 17:12 34.200059 -118.358767 251 788ft 0kts
20-Sep-18 17:13 34.200059 -118.358767 251 788ft 0kts
20-Sep-18 17:14 34.200059 -118.358767 251 788ft 0kts
20-Sep-18 17:15 34.200059 -118.358767 251 788ft 0kts
20-Sep-18 17:16 34.200059 -118.358767 251 788ft 0kts
20-Sep-18 17:17 34.200059 -118.358767 251 788ft 0kts

Navigation Log

Ident Type
1. KSBA Airport
2. KBUR Airport